createdAt,value
2018-01-26T00:01:41.829Z,91.21
2018-01-26T00:04:09.775Z,91.10
2018-01-26T00:06:37.714Z,91.39
2018-01-26T00:09:05.673Z,90.93
2018-01-26T00:11:33.632Z,91.30
2018-01-26T00:14:01.598Z,91.38
2018-01-26T00:16:29.517Z,91.62
2018-01-26T00:18:57.466Z,90.82
2018-01-26T00:21:25.403Z,91.16
2018-01-26T00:23:53.338Z,90.39
2018-01-26T00:26:21.274Z,90.70
2018-01-26T00:28:49.242Z,91.35
2018-01-26T00:31:17.270Z,91.40
2018-01-26T00:33:45.219Z,90.88
2018-01-26T00:36:13.145Z,90.85
2018-01-26T00:38:41.097Z,90.04
2018-01-26T00:41:09.857Z,90.84
2018-01-26T00:43:37.776Z,91.05
2018-01-26T00:46:05.820Z,91.08
2018-01-26T00:48:34.345Z,90.63
2018-01-26T00:51:02.298Z,91.20
2018-01-26T00:53:30.238Z,91.18
2018-01-26T00:55:58.196Z,91.50
2018-01-26T00:58:26.206Z,91.33
2018-01-26T01:00:54.278Z,91.47
2018-01-26T01:03:22.274Z,91.70
2018-01-26T01:05:50.219Z,92.05
2018-01-26T01:08:18.209Z,91.95
2018-01-26T01:10:46.158Z,92.55
2018-01-26T01:13:14.084Z,92.42
2018-01-26T01:15:42.069Z,92.21
2018-01-26T01:18:10.031Z,91.43
2018-01-26T01:20:37.981Z,91.01
2018-01-26T01:23:05.905Z,91.53
2018-01-26T01:25:33.825Z,91.75
2018-01-26T01:28:01.786Z,92.45
2018-01-26T01:30:29.732Z,91.79
2018-01-26T01:32:57.662Z,91.39
2018-01-26T01:35:25.597Z,92.27
2018-01-26T01:37:53.522Z,92.15
2018-01-26T01:40:21.460Z,92.14
2018-01-26T01:42:49.402Z,92.24
2018-01-26T01:45:17.397Z,91.60
2018-01-26T01:47:45.383Z,92.01
2018-01-26T01:50:13.301Z,92.01
2018-01-26T01:52:41.241Z,92.11
2018-01-26T01:55:09.159Z,91.37
2018-01-26T01:57:37.127Z,92.32
2018-01-26T02:00:05.077Z,92.26
2018-01-26T02:02:33.843Z,91.97
2018-01-26T02:05:01.786Z,90.92
2018-01-26T02:07:29.729Z,90.96
2018-01-26T02:09:57.637Z,90.57
2018-01-26T02:12:25.562Z,91.40
2018-01-26T02:14:53.477Z,91.13
2018-01-26T02:17:21.430Z,90.96
2018-01-26T02:19:49.374Z,90.92
2018-01-26T02:22:17.305Z,90.87
2018-01-26T02:24:45.234Z,90.69
2018-01-26T02:27:13.640Z,91.47
2018-01-26T02:29:41.613Z,92.45
2018-01-26T02:32:09.551Z,92.75
2018-01-26T02:34:37.509Z,92.86
2018-01-26T02:37:05.437Z,93.23
2018-01-26T02:39:33.460Z,92.73
2018-01-26T02:42:01.395Z,93.29
2018-01-26T02:44:29.293Z,93.20
2018-01-26T02:46:57.230Z,93.63
2018-01-26T02:49:25.157Z,92.75
2018-01-26T02:51:53.080Z,92.98
2018-01-26T02:54:21.002Z,93.21
2018-01-26T02:56:49.007Z,93.50
2018-01-26T02:59:16.998Z,94.09
2018-01-26T03:01:44.967Z,94.61
2018-01-26T03:04:13.664Z,94.81
2018-01-26T03:06:41.609Z,93.94
2018-01-26T03:09:09.568Z,94.01
2018-01-26T03:11:37.503Z,93.75
2018-01-26T03:14:05.433Z,94.20
2018-01-26T03:16:34.049Z,94.04
2018-01-26T03:19:01.981Z,94.15
2018-01-26T03:21:29.922Z,94.17
2018-01-26T03:23:57.862Z,93.69
2018-01-26T03:26:25.921Z,94.32
2018-01-26T03:28:53.842Z,94.69
2018-01-26T03:31:21.772Z,94.29
2018-01-26T03:33:49.743Z,94.08
2018-01-26T03:36:17.980Z,94.76
2018-01-26T03:38:45.915Z,94.52
2018-01-26T03:41:13.860Z,93.91
2018-01-26T03:43:41.829Z,93.76
2018-01-26T03:46:09.752Z,94.12
2018-01-26T03:48:37.690Z,94.75
2018-01-26T03:51:05.611Z,95.59
2018-01-26T03:53:33.551Z,95.15
2018-01-26T03:56:01.501Z,94.95
2018-01-26T03:58:29.449Z,95.50
2018-01-26T04:00:57.387Z,95.58
2018-01-26T04:03:25.326Z,94.91
2018-01-26T04:05:53.258Z,94.95
2018-01-26T04:08:21.177Z,95.16
2018-01-26T04:10:49.107Z,95.23
2018-01-26T04:13:17.040Z,94.99
2018-01-26T04:15:44.980Z,94.50
2018-01-26T04:18:12.904Z,94.07
2018-01-26T04:23:15.010Z,93.85
2018-01-26T04:25:42.965Z,93.93
2018-01-26T04:28:10.917Z,94.40
2018-01-26T04:30:38.853Z,94.38
2018-01-26T04:33:06.833Z,94.27
2018-01-26T04:35:34.866Z,94.04
2018-01-26T04:38:02.801Z,93.96
2018-01-26T04:40:30.733Z,94.14
2018-01-26T04:42:58.693Z,93.82
2018-01-26T04:45:26.615Z,93.75
2018-01-26T04:47:54.559Z,93.79
2018-01-26T04:50:22.505Z,93.80
2018-01-26T04:52:50.725Z,94.85
2018-01-26T04:55:18.633Z,94.72
2018-01-26T04:57:46.698Z,94.43
2018-01-26T05:00:14.989Z,93.54
2018-01-26T05:02:43.014Z,93.50
2018-01-26T05:05:10.950Z,93.49
2018-01-26T05:07:38.905Z,93.38
2018-01-26T05:10:06.839Z,93.24
2018-01-26T05:12:34.794Z,93.18
2018-01-26T05:15:02.760Z,92.92
2018-01-26T05:17:30.885Z,92.52
2018-01-26T05:19:58.812Z,93.49
2018-01-26T05:22:26.847Z,94.49
2018-01-26T05:24:54.776Z,94.45
2018-01-26T05:27:22.740Z,94.01
2018-01-26T05:29:50.682Z,94.50
2018-01-26T05:32:18.606Z,94.27
2018-01-26T05:34:46.524Z,94.57
2018-01-26T05:37:14.645Z,94.57
2018-01-26T05:39:42.661Z,94.10
2018-01-26T05:42:10.659Z,95.06
2018-01-26T05:44:38.605Z,95.47
2018-01-26T05:47:06.530Z,95.08
2018-01-26T05:49:34.485Z,94.82
2018-01-26T05:52:02.405Z,94.23
2018-01-26T05:54:30.386Z,94.41
2018-01-26T05:56:58.313Z,94.28
2018-01-26T05:59:26.238Z,94.53
2018-01-26T06:01:54.179Z,93.83
2018-01-26T06:04:22.129Z,94.33
2018-01-26T06:06:50.049Z,94.31
2018-01-26T06:09:17.995Z,94.01
2018-01-26T06:11:45.961Z,94.00
2018-01-26T06:14:13.894Z,93.81
2018-01-26T06:16:41.928Z,93.89
2018-01-26T06:19:09.842Z,93.65
2018-01-26T06:21:37.755Z,93.82
2018-01-26T06:24:05.721Z,94.00
2018-01-26T06:26:34.351Z,94.33
2018-01-26T06:29:02.273Z,93.93
2018-01-26T06:31:30.202Z,93.56
2018-01-26T06:33:58.154Z,94.50
2018-01-26T06:36:26.063Z,94.94
2018-01-26T06:38:54.005Z,94.65
2018-01-26T06:41:22.045Z,94.61
2018-01-26T06:43:50.649Z,94.76
2018-01-26T06:46:18.577Z,94.85
2018-01-26T06:48:46.545Z,94.73
2018-01-26T06:51:14.445Z,94.72
2018-01-26T06:53:42.383Z,94.72
2018-01-26T06:56:10.322Z,95.56
2018-01-26T06:58:38.417Z,95.00
2018-01-26T07:01:06.421Z,95.02
2018-01-26T07:03:34.361Z,94.40
2018-01-26T07:06:02.301Z,94.43
2018-01-26T07:08:30.275Z,94.70
2018-01-26T07:10:58.186Z,96.07
2018-01-26T07:13:26.194Z,95.55
2018-01-26T07:15:54.130Z,95.85
2018-01-26T07:18:22.108Z,95.76
2018-01-26T07:20:50.020Z,95.61
2018-01-26T07:23:18.039Z,95.13
2018-01-26T07:25:45.985Z,95.07
2018-01-26T07:28:14.233Z,95.39
2018-01-26T07:30:42.229Z,95.75
2018-01-26T07:33:10.171Z,95.83
2018-01-26T07:35:38.139Z,95.86
2018-01-26T07:38:06.104Z,95.47
2018-01-26T07:40:34.115Z,95.10
2018-01-26T07:43:02.287Z,94.82
2018-01-26T07:45:30.223Z,95.00
2018-01-26T07:47:58.224Z,94.96
2018-01-26T07:50:26.363Z,94.72
2018-01-26T07:52:54.328Z,94.00
2018-01-26T07:55:22.305Z,94.22
2018-01-26T07:57:50.262Z,94.21
2018-01-26T08:00:18.272Z,94.22
2018-01-26T08:02:46.246Z,94.67
2018-01-26T08:05:14.185Z,93.93
2018-01-26T08:07:42.195Z,94.01
2018-01-26T08:10:10.133Z,93.78
2018-01-26T08:12:38.257Z,93.37
2018-01-26T08:15:06.055Z,93.46
2018-01-26T08:17:34.010Z,93.84
2018-01-26T08:20:02.037Z,93.49
2018-01-26T08:22:29.939Z,93.72
2018-01-26T08:24:58.050Z,92.91
2018-01-26T08:27:25.989Z,92.82
2018-01-26T08:29:53.907Z,92.22
2018-01-26T08:32:22.803Z,91.85
2018-01-26T08:34:50.736Z,91.72
2018-01-26T08:37:18.763Z,91.63
2018-01-26T08:39:46.712Z,91.85
2018-01-26T08:42:14.667Z,92.04
2018-01-26T08:44:42.595Z,92.17
2018-01-26T08:47:10.530Z,92.18
2018-01-26T08:49:38.457Z,92.18
2018-01-26T08:52:06.377Z,92.68
2018-01-26T08:54:34.321Z,92.57
2018-01-26T08:57:02.257Z,92.29
2018-01-26T08:59:30.484Z,91.89
2018-01-26T09:01:58.558Z,91.78
2018-01-26T09:04:26.496Z,91.69
2018-01-26T09:06:54.439Z,91.34
2018-01-26T09:09:22.362Z,91.05
2018-01-26T09:11:50.298Z,91.44
2018-01-26T09:14:18.237Z,90.94
2018-01-26T09:16:46.165Z,90.79
2018-01-26T09:19:14.077Z,90.15
2018-01-26T09:21:42.020Z,89.91
2018-01-26T09:24:09.946Z,89.90
2018-01-26T09:26:37.879Z,89.79
2018-01-26T09:29:05.838Z,89.88
2018-01-26T09:31:33.757Z,89.57
2018-01-26T09:34:01.744Z,89.43
2018-01-26T09:36:29.661Z,89.40
2018-01-26T09:38:57.706Z,88.88
2018-01-26T09:41:25.702Z,87.78
2018-01-26T09:43:53.624Z,87.90
2018-01-26T09:46:21.564Z,88.33
2018-01-26T09:48:49.493Z,87.67
2018-01-26T09:51:17.406Z,87.84
2018-01-26T09:53:45.360Z,87.81
2018-01-26T09:56:13.294Z,87.67
2018-01-26T09:58:41.240Z,86.80
2018-01-26T10:01:09.165Z,86.99
2018-01-26T10:03:37.100Z,86.45
2018-01-26T10:06:05.043Z,86.72
2018-01-26T10:08:32.982Z,86.64
2018-01-26T10:11:00.890Z,86.51
2018-01-26T10:13:28.822Z,86.96
2018-01-26T10:15:56.757Z,86.62
2018-01-26T10:18:24.718Z,86.53
2018-01-26T10:20:53.073Z,86.48
2018-01-26T10:23:21.012Z,86.23
2018-01-26T10:25:48.971Z,86.22
2018-01-26T10:28:16.928Z,86.48
2018-01-26T10:30:44.816Z,86.34
2018-01-26T10:33:12.758Z,85.60
2018-01-26T10:35:40.775Z,86.32
2018-01-26T10:38:08.730Z,85.61
2018-01-26T10:40:36.645Z,85.93
2018-01-26T10:43:04.593Z,85.45
2018-01-26T10:45:32.552Z,85.19
2018-01-26T10:48:00.478Z,85.27
2018-01-26T10:50:28.414Z,85.46
2018-01-26T10:52:56.334Z,85.29
2018-01-26T10:55:24.322Z,85.48
2018-01-26T10:57:52.418Z,85.09
2018-01-26T11:00:20.360Z,84.47
2018-01-26T11:02:48.310Z,85.32
2018-01-26T11:05:16.352Z,84.42
2018-01-26T11:07:44.266Z,83.14
2018-01-26T11:10:12.187Z,83.74
2018-01-26T11:12:40.132Z,83.83
2018-01-26T11:15:08.047Z,83.57
2018-01-26T11:17:35.995Z,83.43
2018-01-26T11:20:03.934Z,82.76
2018-01-26T11:22:31.862Z,83.36
2018-01-26T11:25:00.497Z,83.00
2018-01-26T11:27:28.478Z,83.21
2018-01-26T11:29:56.398Z,82.74
2018-01-26T11:32:24.351Z,83.68
2018-01-26T11:34:52.293Z,84.35
2018-01-26T11:37:20.220Z,84.68
2018-01-26T11:39:48.174Z,84.30
2018-01-26T11:42:16.085Z,84.00
2018-01-26T11:44:44.171Z,83.98
2018-01-26T11:47:12.210Z,84.83
2018-01-26T11:49:40.157Z,84.47
2018-01-26T11:52:08.079Z,85.52
2018-01-26T11:54:36.033Z,84.78
2018-01-26T11:57:03.962Z,84.77
2018-01-26T11:59:32.121Z,83.97
2018-01-26T12:02:00.084Z,84.71
2018-01-26T12:04:28.019Z,85.49
2018-01-26T12:06:55.941Z,84.90
2018-01-26T12:09:23.907Z,84.99
2018-01-26T12:11:51.862Z,85.51
2018-01-26T12:14:19.797Z,84.87
2018-01-26T12:16:47.733Z,85.33
2018-01-26T12:19:15.686Z,84.68
2018-01-26T12:21:43.842Z,84.37
2018-01-26T12:24:11.964Z,84.46
2018-01-26T12:26:39.854Z,85.15
2018-01-26T12:29:07.820Z,85.17
2018-01-26T12:31:35.765Z,84.51
2018-01-26T12:34:03.683Z,84.28
2018-01-26T12:36:31.624Z,84.32
2018-01-26T12:38:59.593Z,84.78
2018-01-26T12:41:27.517Z,84.76
2018-01-26T12:43:55.465Z,84.13
2018-01-26T12:46:23.469Z,83.79
2018-01-26T12:48:51.402Z,83.55
2018-01-26T12:51:19.343Z,84.28
2018-01-26T12:53:47.289Z,83.99
2018-01-26T12:56:15.226Z,84.14
2018-01-26T12:58:43.253Z,83.53
2018-01-26T13:01:11.178Z,83.93
2018-01-26T13:03:39.087Z,83.16
2018-01-26T13:06:07.032Z,83.75
2018-01-26T13:08:34.948Z,83.96
2018-01-26T13:11:02.878Z,84.68
2018-01-26T13:13:31.347Z,84.47
2018-01-26T13:15:59.275Z,84.83
2018-01-26T13:18:27.199Z,84.08
2018-01-26T13:20:55.144Z,84.68
2018-01-26T13:23:23.098Z,84.56
2018-01-26T13:25:51.005Z,84.48
2018-01-26T13:28:18.937Z,84.31
2018-01-26T13:30:46.988Z,84.72
2018-01-26T13:33:14.909Z,84.78
2018-01-26T13:35:42.854Z,84.73
2018-01-26T13:38:10.787Z,84.29
2018-01-26T13:40:38.775Z,84.10
2018-01-26T13:43:06.690Z,84.26
2018-01-26T13:45:34.598Z,84.70
2018-01-26T13:48:02.525Z,85.67
2018-01-26T13:50:30.458Z,86.08
2018-01-26T13:52:58.395Z,86.62
2018-01-26T13:55:26.411Z,86.67
2018-01-26T13:57:54.356Z,86.15
2018-01-26T14:00:22.354Z,85.59
2018-01-26T14:02:50.283Z,86.10
2018-01-26T14:05:18.258Z,86.62
2018-01-26T14:07:46.186Z,85.70
2018-01-26T14:10:14.125Z,85.45
2018-01-26T14:12:42.057Z,85.28
2018-01-26T14:15:10.042Z,84.05
2018-01-26T14:17:38.046Z,84.37
2018-01-26T14:20:05.985Z,84.53
2018-01-26T14:22:33.898Z,84.87
2018-01-26T14:25:01.917Z,85.78
2018-01-26T14:27:29.897Z,86.67
2018-01-26T14:29:57.874Z,86.41
2018-01-26T14:32:25.806Z,85.19
2018-01-26T14:34:53.755Z,85.38
2018-01-26T14:37:21.711Z,85.78
2018-01-26T14:39:49.669Z,85.91
2018-01-26T14:42:17.602Z,86.27
2018-01-26T14:44:45.551Z,86.78
2018-01-26T14:47:13.501Z,86.64
2018-01-26T14:49:41.458Z,86.46
2018-01-26T14:52:09.421Z,87.51
2018-01-26T14:54:37.331Z,86.56
2018-01-26T14:57:05.274Z,86.14
2018-01-26T14:59:33.227Z,84.15
2018-01-26T15:02:01.297Z,86.05
2018-01-26T15:04:29.246Z,86.69
2018-01-26T15:06:57.176Z,86.23
2018-01-26T15:09:25.103Z,86.47
2018-01-26T15:11:53.074Z,87.03
2018-01-26T15:14:20.986Z,87.11
2018-01-26T15:16:48.912Z,86.82
2018-01-26T15:19:16.841Z,86.13
2018-01-26T15:21:45.025Z,87.09
2018-01-26T15:24:12.961Z,86.49
2018-01-26T15:26:40.907Z,85.49
2018-01-26T15:29:09.687Z,84.68
2018-01-26T15:31:37.653Z,85.71
2018-01-26T15:34:05.559Z,85.72
2018-01-26T15:36:33.501Z,85.32
2018-01-26T15:39:01.457Z,86.86
2018-01-26T15:41:29.514Z,88.10
2018-01-26T15:43:57.446Z,88.44
2018-01-26T15:46:25.390Z,89.94
2018-01-26T15:48:53.350Z,91.18
2018-01-26T15:51:21.302Z,91.59
2018-01-26T15:53:49.270Z,91.34
2018-01-26T15:56:17.180Z,90.92
2018-01-26T15:58:45.115Z,90.18
2018-01-26T16:01:13.055Z,89.70
2018-01-26T16:03:41.111Z,90.09
2018-01-26T16:06:09.047Z,90.12
2018-01-26T16:08:36.985Z,89.15
2018-01-26T16:11:04.906Z,87.90
2018-01-26T16:13:32.858Z,87.70
2018-01-26T16:16:03.648Z,86.64
2018-01-26T16:18:31.726Z,86.39
2018-01-26T16:21:04.345Z,87.64
2018-01-26T16:23:32.311Z,88.55
2018-01-26T16:26:00.242Z,88.79
2018-01-26T16:28:28.186Z,88.62
2018-01-26T16:30:56.118Z,87.99
2018-01-26T16:33:24.047Z,88.07
2018-01-26T16:35:51.976Z,89.46
2018-01-26T16:38:19.918Z,88.10
2018-01-26T16:40:47.852Z,89.04
2018-01-26T16:43:15.841Z,90.15
2018-01-26T16:45:43.809Z,89.43
2018-01-26T16:48:11.755Z,90.33
2018-01-26T16:50:39.693Z,91.04
2018-01-26T16:53:07.636Z,91.07
2018-01-26T16:55:35.597Z,90.95
2018-01-26T16:58:03.575Z,91.72
2018-01-26T17:00:31.541Z,91.50
2018-01-26T17:02:59.517Z,91.25
2018-01-26T17:05:27.442Z,91.91
2018-01-26T17:07:55.385Z,91.89
2018-01-26T17:10:23.310Z,90.18
2018-01-26T17:12:51.303Z,89.53
2018-01-26T17:15:19.189Z,89.24
2018-01-26T17:17:47.154Z,89.77
2018-01-26T17:20:15.097Z,89.95
2018-01-26T17:22:43.047Z,89.70
2018-01-26T17:25:11.002Z,89.71
2018-01-26T17:27:39.083Z,89.27
2018-01-26T17:30:06.991Z,89.43
2018-01-26T17:32:35.014Z,89.66
2018-01-26T17:35:02.955Z,89.70
2018-01-26T17:37:31.013Z,89.85
2018-01-26T17:39:58.913Z,89.92
2018-01-26T17:42:26.867Z,90.18
2018-01-26T17:44:54.807Z,87.69
2018-01-26T17:47:22.726Z,87.93
2018-01-26T17:49:50.685Z,87.25
2018-01-26T17:52:18.590Z,88.44
2018-01-26T17:54:46.606Z,88.06
2018-01-26T17:57:14.523Z,87.85
2018-01-26T17:59:42.465Z,88.51
2018-01-26T18:02:10.410Z,88.70
2018-01-26T18:04:38.353Z,88.07
2018-01-26T18:07:06.307Z,88.30
2018-01-26T18:09:34.546Z,88.13
2018-01-26T18:12:02.473Z,87.80
2018-01-26T18:14:30.423Z,87.86
2018-01-26T18:16:58.358Z,88.06
2018-01-26T18:19:26.323Z,88.44
2018-01-26T18:21:55.048Z,89.50
2018-01-26T18:24:23.899Z,89.67
2018-01-26T18:26:51.836Z,90.55
2018-01-26T18:29:19.774Z,90.66
2018-01-26T18:31:48.055Z,90.90
2018-01-26T18:34:15.998Z,91.27
2018-01-26T18:36:43.941Z,92.04
2018-01-26T18:39:11.897Z,92.07
2018-01-26T18:41:39.857Z,92.27
2018-01-26T18:44:07.787Z,91.69
2018-01-26T18:46:35.742Z,91.15
2018-01-26T18:49:04.014Z,91.15
2018-01-26T18:51:33.045Z,92.02
2018-01-26T18:54:00.961Z,91.69
2018-01-26T18:56:28.925Z,92.11
2018-01-26T18:58:56.937Z,92.17
2018-01-26T19:01:24.873Z,91.78
2018-01-26T19:03:52.879Z,91.96
2018-01-26T19:06:20.808Z,91.33
2018-01-26T19:08:48.750Z,91.72
2018-01-26T19:11:16.750Z,90.01
2018-01-26T19:13:44.674Z,90.73
2018-01-26T19:16:12.594Z,90.77
2018-01-26T19:18:40.552Z,90.57
2018-01-26T19:21:08.482Z,90.12
2018-01-26T19:23:36.451Z,89.95
2018-01-26T19:26:04.422Z,89.08
2018-01-26T19:28:32.332Z,87.77
2018-01-26T19:31:00.302Z,88.76
2018-01-26T19:33:29.206Z,87.93
2018-01-26T19:35:57.113Z,88.62
2018-01-26T19:38:25.059Z,88.62
2018-01-26T19:40:53.003Z,89.43
2018-01-26T19:43:20.924Z,90.36
2018-01-26T19:45:49.326Z,90.44
2018-01-26T19:48:17.243Z,90.95
2018-01-26T19:50:45.180Z,90.64
2018-01-26T19:53:13.102Z,90.68
2018-01-26T19:55:41.849Z,90.57
2018-01-26T19:58:09.796Z,90.48
2018-01-26T20:00:37.776Z,90.93
2018-01-26T20:03:17.401Z,91.10
2018-01-26T20:05:50.944Z,91.21
2018-01-26T20:08:30.207Z,91.47
2018-01-26T20:10:58.351Z,91.70
2018-01-26T20:13:28.069Z,91.50
2018-01-26T20:15:58.637Z,91.21
2018-01-26T20:18:26.674Z,90.99
2018-01-26T20:20:54.596Z,91.09
2018-01-26T20:23:22.539Z,91.24
2018-01-26T20:25:50.453Z,90.18
2018-01-26T20:28:18.434Z,91.15
2018-01-26T20:30:46.376Z,91.32
2018-01-26T20:33:14.310Z,91.58
2018-01-26T20:35:42.258Z,92.06
2018-01-26T20:38:10.261Z,91.66
2018-01-26T20:40:38.189Z,91.55
2018-01-26T20:43:06.118Z,90.86
2018-01-26T20:45:34.133Z,90.63
2018-01-26T20:48:02.066Z,90.53
2018-01-26T20:50:30.018Z,90.02
2018-01-26T20:52:57.952Z,90.63
2018-01-26T20:55:26.283Z,90.82
2018-01-26T20:57:54.310Z,91.38
2018-01-26T21:00:22.233Z,91.02
2018-01-26T21:02:50.185Z,91.53
2018-01-26T21:05:18.150Z,91.66
2018-01-26T21:07:46.332Z,91.51
2018-01-26T21:10:15.581Z,90.99
2018-01-26T21:12:43.538Z,91.04
2018-01-26T21:15:11.539Z,90.89
2018-01-26T21:17:39.534Z,90.56
2018-01-26T21:20:07.508Z,90.83
2018-01-26T21:22:35.471Z,90.44
2018-01-26T21:25:03.413Z,90.41
2018-01-26T21:27:31.369Z,89.90
2018-01-26T21:29:59.315Z,90.34
2018-01-26T21:32:28.113Z,90.54
2018-01-26T21:34:56.103Z,90.70
2018-01-26T21:37:24.109Z,90.89
2018-01-26T21:39:52.210Z,90.92
2018-01-26T21:42:20.187Z,91.55
2018-01-26T21:44:48.118Z,89.50
2018-01-26T21:47:16.053Z,89.22
2018-01-26T21:49:44.028Z,88.22
2018-01-26T21:52:11.985Z,88.40
2018-01-26T21:54:40.040Z,86.74
2018-01-26T21:57:07.978Z,85.85
2018-01-26T21:59:35.932Z,86.50
2018-01-26T22:02:04.792Z,86.10
2018-01-26T22:04:38.394Z,86.01
2018-01-26T22:07:12.107Z,86.59
2018-01-26T22:09:40.082Z,86.57
2018-01-26T22:12:08.117Z,86.77
2018-01-26T22:14:36.135Z,86.15
2018-01-26T22:17:04.991Z,85.80
2018-01-26T22:19:33.054Z,85.40
2018-01-26T22:22:00.977Z,85.83
2018-01-26T22:24:28.885Z,85.94
2018-01-26T22:26:56.825Z,86.14
2018-01-26T22:29:24.898Z,86.74
2018-01-26T22:31:52.849Z,86.88
2018-01-26T22:34:20.969Z,86.94
2018-01-26T22:36:48.905Z,87.77
2018-01-26T22:39:16.867Z,87.68
2018-01-26T22:41:44.943Z,87.39
2018-01-26T22:44:12.898Z,87.28
2018-01-26T22:46:41.177Z,87.96
2018-01-26T22:49:09.326Z,88.20
2018-01-26T22:51:37.254Z,88.47
2018-01-26T22:54:05.235Z,89.51
2018-01-26T22:56:33.199Z,89.17
2018-01-26T22:59:01.140Z,89.35
2018-01-26T23:01:29.157Z,89.52
2018-01-26T23:03:57.146Z,89.95
2018-01-26T23:06:25.078Z,89.73
2018-01-26T23:08:53.178Z,89.81
2018-01-26T23:11:21.109Z,89.79
2018-01-26T23:13:49.063Z,89.52
2018-01-26T23:16:16.975Z,89.36
2018-01-26T23:18:44.911Z,89.70
2018-01-26T23:21:12.866Z,90.09
2018-01-26T23:23:40.818Z,89.78
2018-01-26T23:26:08.774Z,89.60
2018-01-26T23:28:36.737Z,89.63
2018-01-26T23:31:04.713Z,89.99
2018-01-26T23:33:32.760Z,90.12
2018-01-26T23:36:00.670Z,89.43
2018-01-26T23:38:28.832Z,89.65
2018-01-26T23:40:56.853Z,89.98
2018-01-26T23:43:24.800Z,89.67
2018-01-26T23:45:52.739Z,90.05
2018-01-26T23:48:20.696Z,89.67
2018-01-26T23:50:48.637Z,89.32
2018-01-26T23:53:16.712Z,89.76
2018-01-26T23:55:45.261Z,89.86
2018-01-26T23:58:13.348Z,90.09
